| time (UTC) | temp F | wind direction | speed MPH | gust MPH | rain 1hr in | rain 24hr in | rain mn in | humidity % | barometer mb |
| 20260507113125 | 41 | 86 | 1.0 | 3.0 | 0.00 | 0.00 | 0.00 | 89 | 1017.5 |
| 20260507111550 | 40 | 0 | 0.0 | 2.0 | 0.00 | 0.00 | 0.00 | 88 | 1017.5 |
| 20260507110054 | 40 | 0 | 0.0 | 0.0 | 0.00 | 0.00 | 0.00 | 86 | 1017.6 |
| 20260507104601 | 41 | 0 | 0.0 | 0.0 | 0.00 | 0.00 | 0.00 | 87 | 1017.6 |
| 20260507103052 | 41 | 0 | 0.0 | 3.0 | 0.00 | 0.00 | 0.00 | 88 | 1017.6 |
| 20260507101553 | 42 | 106 | 1.0 | 3.0 | 0.00 | 0.00 | 0.00 | 85 | 1017.7 |
| 20260507100059 | 43 | 0 | 0.0 | 2.0 | 0.00 | 0.00 | 0.00 | 87 | 1017.8 |
| 20260507094604 | 42 | 113 | 0.0 | 4.0 | 0.00 | 0.00 | 0.00 | 88 | 1017.9 |
| 20260507093052 | 42 | 117 | 1.0 | 2.0 | 0.00 | 0.00 | 0.00 | 86 | 1017.8 |
| 20260507091555 | 42 | 0 | 0.0 | 0.0 | 0.00 | 0.00 | 0.00 | 85 | 1018.1 |
| 20260507090053 | 43 | 0 | 0.0 | 0.0 | 0.00 | 0.00 | 0.00 | 85 | 1018.2 |
| 20260507084557 | 44 | 0 | 0.0 | 1.0 | 0.00 | 0.00 | 0.00 | 85 | 1018.4 |
| 20260507083057 | 45 | 0 | 1.0 | 3.0 | 0.00 | 0.00 | 0.00 | 88 | 1018.6 |
| 20260507081554 | 44 | 0 | 0.0 | 2.0 | 0.00 | 0.00 | 0.00 | 86 | 1018.8 |
| 20260507080056 | 44 | 0 | 0.0 | 0.0 | 0.00 | 0.00 | 0.00 | 84 | 1018.7 |
| 20260507074557 | 45 | 0 | 0.0 | 3.0 | 0.00 | 0.00 | 0.00 | 84 | 1018.6 |
| 20260507073058 | 45 | 0 | 0.0 | 3.0 | 0.00 | 0.00 | 0.00 | 84 | 1018.8 |
| 20260507071556 | 46 | 150 | 1.0 | 2.0 | 0.00 | 0.00 | 0.00 | 86 | 1018.9 |
| 20260507070106 | 45 | 0 | 0.0 | 0.0 | 0.00 | 0.00 | 0.00 | 84 | 1018.9 |
| 20260507064602 | 46 | 0 | 1.0 | 4.0 | 0.00 | 0.00 | 0.00 | 82 | 1018.9 |
| 20260507063108 | 47 | 0 | 0.0 | 0.0 | 0.00 | 0.00 | 0.00 | 82 | 1018.9 |
| 20260507061553 | 48 | 0 | 0.0 | 1.0 | 0.00 | 0.00 | 0.00 | 82 | 1019.0 |
| 20260507060107 | 48 | 0 | 0.0 | 0.0 | 0.00 | 0.00 | 0.00 | 82 | 1019.0 |
| 20260507054600 | 49 | 0 | 0.0 | 0.0 | 0.00 | 0.00 | 0.00 | 80 | 1019.1 |
| 20260507053059 | 50 | 0 | 0.0 | 2.0 | 0.00 | 0.00 | 0.00 | 80 | 1019.2 |
| 20260507051607 | 51 | 0 | 0.0 | 1.0 | 0.00 | 0.00 | 0.00 | 79 | 1019.3 |
| 20260507050109 | 52 | 0 | 0.0 | 0.0 | 0.00 | 0.00 | 0.00 | 78 | 1019.2 |
| 20260507044557 | 53 | 0 | 0.0 | 2.0 | 0.00 | 0.00 | 0.00 | 76 | 1019.1 |
| 20260507043049 | 54 | 221 | 1.0 | 3.0 | 0.00 | 0.00 | 0.00 | 76 | 1019.1 |
| 20260507041552 | 55 | 0 | 0.0 | 3.0 | 0.00 | 0.00 | 0.00 | 76 | 1019.1 |
| 20260507040103 | 56 | 223 | 0.0 | 2.0 | 0.00 | 0.00 | 0.00 | 75 | 1018.8 |
| 20260507034550 | 57 | 223 | 1.0 | 2.0 | 0.00 | 0.00 | 0.00 | 72 | 1018.7 |
| 20260507033053 | 58 | 0 | 0.0 | 2.0 | 0.00 | 0.00 | 0.00 | 71 | 1018.6 |
| 20260507031554 | 59 | 0 | 0.0 | 3.0 | 0.00 | 0.00 | 0.00 | 70 | 1018.5 |
| 20260507030055 | 60 | 225 | 2.0 | 4.0 | 0.00 | 0.00 | 0.00 | 68 | 1018.2 |
| 20260507024551 | 62 | 280 | 1.0 | 5.0 | 0.00 | 0.00 | 0.00 | 66 | 1018.0 |
| 20260507023054 | 64 | 0 | 0.0 | 6.0 | 0.00 | 0.00 | 0.00 | 64 | 1018.0 |
| 20260507021559 | 65 | 279 | 1.0 | 9.0 | 0.00 | 0.00 | 0.00 | 62 | 1017.7 |
| 20260507020052 | 67 | 304 | 4.0 | 10.0 | 0.00 | 0.00 | 0.00 | 59 | 1017.5 |
| 20260507014557 | 68 | 253 | 1.0 | 6.0 | 0.00 | 0.00 | 0.00 | 58 | 1017.4 |
| 20260507013050 | 68 | 360 | 3.0 | 12.0 | 0.00 | 0.00 | 0.00 | 57 | 1017.3 |
| 20260507011556 | 69 | 360 | 3.0 | 11.0 | 0.00 | 0.00 | 0.00 | 56 | 1017.3 |
| 20260507010053 | 69 | 311 | 6.0 | 13.0 | 0.00 | 0.00 | 0.00 | 55 | 1017.2 |
| 20260507004554 | 70 | 10 | 7.0 | 13.0 | 0.00 | 0.00 | 0.00 | 53 | 1017.0 |
| 20260507003055 | 71 | 310 | 5.0 | 12.0 | 0.00 | 0.00 | 0.00 | 52 | 1017.0 |
| 20260507001603 | 72 | 332 | 6.0 | 12.0 | 0.00 | 0.00 | 0.00 | 51 | 1016.7 |
| 20260507000058 | 73 | 339 | 5.0 | 12.0 | 0.00 | 0.00 | 0.00 | 50 | 1016.7 |
| 20260506234615 | 73 | 227 | 5.0 | 14.0 | 0.00 | 0.00 | 0.00 | 50 | 1016.7 |
| 20260506233055 | 73 | 265 | 4.0 | 13.0 | 0.00 | 0.00 | 0.00 | 51 | 1016.6 |
| 20260506231556 | 73 | 296 | 8.0 | 16.0 | 0.00 | 0.00 | 0.00 | 49 | 1016.7 |
| 20260506230058 | 74 | 311 | 7.0 | 15.0 | 0.00 | 0.00 | 0.00 | 48 | 1016.6 |
| 20260506224556 | 74 | 306 | 6.0 | 11.0 | 0.00 | 0.00 | 0.00 | 46 | 1016.7 |
| 20260506223059 | 74 | 31 | 6.0 | 13.0 | 0.00 | 0.00 | 0.00 | 43 | 1016.7 |
| 20260506221551 | 74 | 336 | 6.0 | 13.0 | 0.00 | 0.00 | 0.00 | 43 | 1016.8 |
| 20260506220052 | 74 | 317 | 7.0 | 14.0 | 0.00 | 0.00 | 0.00 | 42 | 1016.9 |
| 20260506214550 | 73 | 285 | 6.0 | 14.0 | 0.00 | 0.00 | 0.00 | 43 | 1017.0 |
| 20260506213054 | 74 | 323 | 6.0 | 13.0 | 0.00 | 0.00 | 0.00 | 45 | 1017.3 |
| 20260506211555 | 73 | 342 | 5.0 | 13.0 | 0.00 | 0.00 | 0.00 | 43 | 1017.3 |
| 20260506210054 | 73 | 360 | 4.0 | 11.0 | 0.00 | 0.00 | 0.00 | 42 | 1017.3 |
| 20260506204558 | 73 | 330 | 4.0 | 11.0 | 0.00 | 0.00 | 0.00 | 43 | 1017.4 |
| 20260506203052 | 73 | 350 | 7.0 | 11.0 | 0.00 | 0.00 | 0.00 | 43 | 1017.3 |
| 20260506201556 | 73 | 350 | 5.0 | 14.0 | 0.00 | 0.00 | 0.00 | 42 | 1017.3 |
| 20260506200109 | 73 | 57 | 6.0 | 12.0 | 0.00 | 0.00 | 0.00 | 41 | 1017.5 |
| 20260506194611 | 72 | 13 | 2.0 | 11.0 | 0.00 | 0.00 | 0.00 | 41 | 1017.5 |
| 20260506193052 | 72 | 330 | 4.0 | 14.0 | 0.00 | 0.00 | 0.00 | 46 | 1017.8 |
| 20260506191556 | 70 | 226 | 2.0 | 11.0 | 0.00 | 0.00 | 0.00 | 48 | 1018.1 |
| 20260506190052 | 70 | 339 | 3.0 | 8.0 | 0.00 | 0.00 | 0.00 | 44 | 1018.1 |
| 20260506184602 | 69 | 348 | 2.0 | 10.0 | 0.00 | 0.00 | 0.00 | 48 | 1018.3 |
| 20260506183103 | 69 | 29 | 1.0 | 10.0 | 0.00 | 0.00 | 0.00 | 49 | 1018.5 |
| 20260506181559 | 68 | 288 | 3.0 | 11.0 | 0.00 | 0.00 | 0.00 | 51 | 1018.6 |
| 20260506180053 | 68 | 245 | 2.0 | 7.0 | 0.00 | 0.00 | 0.00 | 54 | 1018.7 |
| 20260506174552 | 68 | 0 | 1.0 | 10.0 | 0.00 | 0.00 | 0.00 | 54 | 1018.8 |
| 20260506173055 | 67 | 235 | 1.0 | 9.0 | 0.00 | 0.00 | 0.00 | 59 | 1018.8 |
| 20260506171559 | 65 | 157 | 2.0 | 7.0 | 0.00 | 0.00 | 0.00 | 62 | 1018.9 |
| 20260506170057 | 62 | 200 | 3.0 | 8.0 | 0.00 | 0.00 | 0.00 | 64 | 1018.9 |
| 20260506164557 | 59 | 176 | 1.0 | 5.0 | 0.00 | 0.01 | 0.00 | 68 | 1018.9 |
| 20260506163055 | 57 | 157 | 1.0 | 4.0 | 0.00 | 0.01 | 0.00 | 70 | 1018.9 |
| 20260506161603 | 55 | 157 | 2.0 | 7.0 | 0.00 | 0.01 | 0.00 | 76 | 1019.0 |
| 20260506160055 | 52 | 209 | 1.0 | 3.0 | 0.00 | 0.01 | 0.00 | 84 | 1018.8 |
| 20260506154556 | 49 | 0 | 0.0 | 3.0 | 0.00 | 0.01 | 0.00 | 83 | 1018.9 |
| 20260506153058 | 48 | 83 | 0.0 | 3.0 | 0.00 | 0.01 | 0.00 | 89 | 1019.0 |
| 20260506151605 | 47 | 0 | 0.0 | 3.0 | 0.00 | 0.01 | 0.00 | 88 | 1019.3 |
| 20260506150106 | 46 | 0 | 1.0 | 6.0 | 0.00 | 0.01 | 0.00 | 90 | 1019.2 |
| 20260506144612 | 46 | 94 | 2.0 | 6.0 | 0.00 | 0.02 | 0.00 | 92 | 1019.1 |
| 20260506143057 | 45 | 88 | 1.0 | 3.0 | 0.00 | 0.02 | 0.00 | 92 | 1019.1 |
| 20260506141554 | 42 | 0 | 0.0 | 4.0 | 0.00 | 0.02 | 0.00 | 91 | 1019.1 |
| 20260506140111 | 39 | 92 | 1.0 | 3.0 | 0.00 | 0.02 | 0.00 | 90 | 1019.0 |
| 20260506134555 | 38 | 0 | 1.0 | 3.0 | 0.00 | 0.05 | 0.00 | 90 | 1018.8 |
| 20260506133059 | 38 | 0 | 0.0 | 3.0 | 0.00 | 0.05 | 0.00 | 90 | 1018.6 |
| 20260506131601 | 37 | 0 | 0.0 | 1.0 | 0.00 | 0.05 | 0.00 | 89 | 1018.5 |
| 20260506130138 | 37 | 0 | 0.0 | 2.0 | 0.00 | 0.05 | 0.00 | 89 | 1018.3 |
| 20260506124600 | 36 | 0 | 0.0 | 2.0 | 0.00 | 0.10 | 0.00 | 89 | 1018.2 |
| 20260506123052 | 36 | 0 | 0.0 | 3.0 | 0.00 | 0.10 | 0.00 | 89 | 1018.1 |
| 20260506121551 | 35 | 0 | 0.0 | 0.0 | 0.00 | 0.10 | 0.00 | 89 | 1018.1 |
| 20260506120053 | 34 | 0 | 0.0 | 2.0 | 0.00 | 0.10 | 0.00 | 89 | 1018.1 |
| 20260506114557 | 33 | 0 | 0.0 | 0.0 | 0.00 | 0.13 | 0.00 | 88 | 1018.0 |